createdAt,value
2018-09-02T00:01:36.511Z,100.00
2018-09-02T00:04:41.039Z,100.00
2018-09-02T00:07:45.359Z,100.00
2018-09-02T00:10:49.818Z,100.00
2018-09-02T00:13:54.160Z,100.00
2018-09-02T00:16:58.634Z,100.00
2018-09-02T00:20:03.161Z,100.00
2018-09-02T00:23:08.060Z,100.00
2018-09-02T00:26:12.416Z,100.00
2018-09-02T00:29:16.873Z,100.00
2018-09-02T00:32:21.250Z,100.00
2018-09-02T00:35:25.761Z,100.00
2018-09-02T00:38:30.563Z,100.00
2018-09-02T00:41:35.942Z,100.00
2018-09-02T00:44:40.307Z,100.00
2018-09-02T00:47:44.779Z,100.00
2018-09-02T00:50:49.136Z,100.00
2018-09-02T00:53:53.597Z,100.00
2018-09-02T00:56:58.193Z,100.00
2018-09-02T01:00:02.580Z,100.00
2018-09-02T01:03:06.917Z,100.00
2018-09-02T01:06:11.337Z,100.00
2018-09-02T01:09:15.731Z,100.00
2018-09-02T01:12:20.363Z,100.00
2018-09-02T01:15:24.699Z,100.00
2018-09-02T01:18:29.140Z,100.00
2018-09-02T01:21:33.473Z,100.00
2018-09-02T01:24:37.818Z,100.00
2018-09-02T01:27:42.749Z,100.00
2018-09-02T01:30:47.103Z,100.00
2018-09-02T01:33:51.534Z,100.00
2018-09-02T01:36:55.894Z,100.00
2018-09-02T01:40:00.257Z,100.00
2018-09-02T01:43:05.396Z,100.00
2018-09-02T01:46:09.750Z,100.00
2018-09-02T01:49:14.213Z,100.00
2018-09-02T01:52:18.573Z,100.00
2018-09-02T01:55:22.986Z,100.00
2018-09-02T01:58:27.502Z,100.00
2018-09-02T02:01:31.905Z,100.00
2018-09-02T02:04:41.305Z,100.00
2018-09-02T02:07:45.649Z,100.00
2018-09-02T02:10:50.009Z,100.00
2018-09-02T02:13:54.345Z,100.00
2018-09-02T02:16:58.691Z,100.00
2018-09-02T02:20:03.005Z,100.00
2018-09-02T02:23:07.436Z,100.00
2018-09-02T02:26:11.745Z,100.00
2018-09-02T02:29:16.089Z,100.00
2018-09-02T02:32:20.441Z,100.00
2018-09-02T02:35:24.777Z,100.00
2018-09-02T02:38:29.126Z,100.00
2018-09-02T02:41:33.481Z,100.00
2018-09-02T02:44:37.849Z,100.00
2018-09-02T02:47:42.210Z,100.00
2018-09-02T02:50:46.596Z,100.00
2018-09-02T02:53:50.964Z,100.00
2018-09-02T02:56:55.293Z,100.00
2018-09-02T02:59:59.661Z,100.00
2018-09-02T03:03:04.005Z,100.00
2018-09-02T03:06:08.352Z,100.00
2018-09-02T03:09:13.254Z,100.00
2018-09-02T03:12:17.653Z,100.00
2018-09-02T03:15:22.096Z,100.00
2018-09-02T03:18:26.466Z,100.00
2018-09-02T03:21:30.835Z,100.00
2018-09-02T03:24:35.536Z,100.00
2018-09-02T03:27:39.909Z,100.00
2018-09-02T03:30:44.343Z,100.00
2018-09-02T03:33:48.694Z,100.00
2018-09-02T03:36:53.145Z,100.00
2018-09-02T03:39:57.625Z,100.00
2018-09-02T03:43:02.026Z,100.00
2018-09-02T03:46:06.422Z,100.00
2018-09-02T03:49:11.136Z,100.00
2018-09-02T03:52:15.629Z,100.00
2018-09-02T03:55:20.206Z,100.00
2018-09-02T03:58:24.609Z,100.00
2018-09-02T04:01:28.978Z,100.00
2018-09-02T04:04:33.385Z,100.00
2018-09-02T04:07:37.717Z,100.00
2018-09-02T04:10:42.083Z,100.00
2018-09-02T04:13:46.513Z,100.00
2018-09-02T04:16:50.913Z,100.00
2018-09-02T04:19:55.273Z,100.00
2018-09-02T04:22:59.662Z,100.00
2018-09-02T04:26:04.106Z,100.00
2018-09-02T04:29:08.453Z,100.00
2018-09-02T04:32:12.818Z,100.00
2018-09-02T04:35:17.177Z,100.00
2018-09-02T04:38:21.565Z,100.00
2018-09-02T04:41:26.595Z,100.00
2018-09-02T04:44:30.893Z,100.00
2018-09-02T04:47:35.292Z,100.00
2018-09-02T04:50:40.389Z,100.00
2018-09-02T04:53:44.809Z,100.00
2018-09-02T04:56:49.176Z,100.00
2018-09-02T04:59:53.634Z,100.00
2018-09-02T05:02:58.049Z,100.00
2018-09-02T05:06:02.455Z,100.00
2018-09-02T05:09:07.387Z,100.00
2018-09-02T05:12:11.744Z,100.00
2018-09-02T05:15:16.378Z,100.00
2018-09-02T05:18:20.780Z,100.00
2018-09-02T05:21:25.118Z,100.00
2018-09-02T05:24:29.485Z,100.00
2018-09-02T05:27:33.907Z,100.00
2018-09-02T05:30:38.281Z,100.00
2018-09-02T05:33:42.758Z,100.00
2018-09-02T05:36:47.419Z,100.00
2018-09-02T05:39:51.942Z,100.00
2018-09-02T05:42:56.311Z,100.00
2018-09-02T05:46:00.681Z,100.00
2018-09-02T05:49:06.201Z,100.00
2018-09-02T05:52:10.615Z,100.00
2018-09-02T05:55:15.001Z,100.00
2018-09-02T05:58:19.460Z,100.00
2018-09-02T06:01:23.789Z,100.00
2018-09-02T06:04:28.167Z,100.00
2018-09-02T06:07:32.609Z,100.00
2018-09-02T06:10:37.051Z,100.00
2018-09-02T06:13:41.382Z,100.00
2018-09-02T06:16:46.122Z,100.00
2018-09-02T06:19:50.457Z,100.00
2018-09-02T06:22:55.625Z,100.00
2018-09-02T06:26:00.119Z,100.00
2018-09-02T06:29:04.629Z,100.00
2018-09-02T06:32:09.030Z,100.00
2018-09-02T06:35:13.461Z,100.00
2018-09-02T06:38:18.040Z,100.00
2018-09-02T06:41:22.441Z,100.00
2018-09-02T06:44:26.879Z,100.00
2018-09-02T06:47:31.840Z,100.00
2018-09-02T06:50:36.191Z,100.00
2018-09-02T06:53:40.523Z,100.00
2018-09-02T06:56:45.073Z,100.00
2018-09-02T06:59:49.430Z,100.00
2018-09-02T07:02:53.817Z,100.00
2018-09-02T07:05:58.635Z,100.00
2018-09-02T07:09:03.085Z,100.00
2018-09-02T07:12:07.446Z,100.00
2018-09-02T07:15:12.120Z,100.00
2018-09-02T07:18:16.788Z,100.00
2018-09-02T07:21:21.132Z,100.00
2018-09-02T07:24:25.495Z,100.00
2018-09-02T07:27:29.909Z,100.00
2018-09-02T07:30:34.404Z,100.00
2018-09-02T07:33:39.459Z,100.00
2018-09-02T07:36:43.831Z,100.00
2018-09-02T07:39:48.456Z,100.00
2018-09-02T07:42:53.023Z,100.00
2018-09-02T07:45:57.597Z,100.00
2018-09-02T07:49:01.953Z,99.71
2018-09-02T07:52:06.307Z,98.96
2018-09-02T07:55:11.313Z,98.51
2018-09-02T07:58:15.723Z,99.37
2018-09-02T08:01:20.072Z,98.33
2018-09-02T08:04:24.433Z,100.00
2018-09-02T08:07:28.933Z,100.00
2018-09-02T08:10:33.306Z,100.00
2018-09-02T08:13:37.769Z,100.00
2018-09-02T08:16:42.165Z,98.44
2018-09-02T08:19:46.917Z,95.31
2018-09-02T08:22:51.298Z,98.11
2018-09-02T08:25:55.669Z,99.19
2018-09-02T08:29:00.045Z,100.00
2018-09-02T08:32:04.449Z,99.91
2018-09-02T08:35:08.839Z,98.77
2018-09-02T08:38:13.233Z,99.46
2018-09-02T08:41:17.681Z,100.00
2018-09-02T08:44:22.315Z,99.51
2018-09-02T08:48:06.098Z,98.59
2018-09-02T08:51:55.223Z,93.66
2018-09-02T09:34:00.458Z,86.29
2018-09-02T09:37:08.434Z,82.58
2018-09-02T09:40:13.074Z,76.10
2018-09-02T09:43:19.641Z,79.00
2018-09-02T09:46:24.522Z,81.78
2018-09-02T09:49:31.450Z,82.23
2018-09-02T09:52:35.950Z,80.10
2018-09-02T09:55:40.561Z,81.95
2018-09-02T09:58:44.939Z,79.48
2018-09-02T10:05:29.808Z,78.09
2018-09-02T10:08:49.399Z,76.81
2018-09-02T10:11:54.519Z,75.50
2018-09-02T10:15:00.216Z,78.41
2018-09-02T10:18:25.387Z,78.30
2018-09-02T10:21:35.831Z,78.46
2018-09-02T10:24:42.336Z,78.03
2018-09-02T10:27:50.593Z,80.12
2018-09-02T10:30:55.169Z,81.70
2018-09-02T10:33:59.806Z,78.53
2018-09-02T10:37:04.517Z,81.70
2018-09-02T10:40:08.925Z,80.44
2018-09-02T10:43:13.553Z,80.68
2018-09-02T10:46:18.183Z,82.04
2018-09-02T10:49:24.382Z,82.83
2018-09-02T10:52:29.860Z,79.98
2018-09-02T10:55:35.822Z,80.00
2018-09-02T10:58:42.067Z,81.47
2018-09-02T11:01:47.238Z,83.64
2018-09-02T11:04:53.427Z,84.19
2018-09-02T11:07:59.438Z,83.25
2018-09-02T11:11:05.024Z,81.79
2018-09-02T11:14:10.872Z,80.78
2018-09-02T11:17:18.243Z,80.14
2018-09-02T11:20:24.774Z,79.95
2018-09-02T11:23:30.068Z,78.94
2018-09-02T11:26:35.588Z,80.60
2018-09-02T11:33:50.494Z,80.14
2018-09-02T11:36:56.232Z,79.21
2018-09-02T11:40:01.504Z,77.74
2018-09-02T11:43:06.573Z,75.12
2018-09-02T11:46:12.011Z,74.48
2018-09-02T11:49:18.275Z,74.34
2018-09-02T11:52:24.332Z,76.44
2018-09-02T11:55:31.029Z,75.24
2018-09-02T11:58:36.540Z,71.50
2018-09-02T12:01:41.640Z,71.01
2018-09-02T12:04:46.526Z,69.33
2018-09-02T12:07:52.267Z,70.13
2018-09-02T12:10:56.871Z,70.01
2018-09-02T12:14:01.862Z,68.86
2018-09-02T12:17:06.590Z,70.35
2018-09-02T12:20:11.078Z,66.81
2018-09-02T12:23:15.625Z,68.71
2018-09-02T12:26:21.352Z,68.17
2018-09-02T12:29:26.045Z,68.42
2018-09-02T12:32:30.782Z,70.56
2018-09-02T12:35:35.634Z,72.52
2018-09-02T12:38:40.198Z,72.88
2018-09-02T12:41:44.876Z,73.95
2018-09-02T12:44:49.662Z,77.94
2018-09-02T12:47:55.049Z,78.09
2018-09-02T12:50:59.408Z,77.75
2018-09-02T12:54:03.933Z,75.62
2018-09-02T12:57:08.568Z,76.48
2018-09-02T13:00:13.122Z,77.75
2018-09-02T13:03:18.945Z,74.10
2018-09-02T13:06:24.124Z,72.54
2018-09-02T13:09:29.277Z,74.84
2018-09-02T13:12:37.761Z,78.41
2018-09-02T13:15:42.485Z,79.70
2018-09-02T13:18:48.034Z,79.72
2018-09-02T13:21:53.120Z,76.79
2018-09-02T13:24:58.091Z,76.05
2018-09-02T13:28:02.662Z,75.32
2018-09-02T13:31:07.280Z,75.87
2018-09-02T13:34:13.396Z,77.14
2018-09-02T13:37:18.147Z,75.78
2018-09-02T13:40:22.887Z,73.49
2018-09-02T13:43:27.713Z,72.92
2018-09-02T13:46:32.241Z,70.14
2018-09-02T13:49:36.878Z,70.70
2018-09-02T13:52:41.578Z,68.97
2018-09-02T13:55:46.493Z,70.19
2018-09-02T13:58:53.181Z,70.03
2018-09-02T14:01:59.322Z,68.30
2018-09-02T14:05:03.965Z,69.78
2018-09-02T14:08:08.828Z,69.56
2018-09-02T14:11:13.475Z,70.00
2018-09-02T14:14:17.983Z,70.06
2018-09-02T14:17:23.519Z,74.28
2018-09-02T14:20:28.207Z,75.85
2018-09-02T14:23:33.393Z,77.65
2018-09-02T14:26:38.689Z,79.26
2018-09-02T14:29:43.204Z,80.96
2018-09-02T14:32:48.507Z,80.07
2018-09-02T14:35:56.604Z,81.74
2018-09-02T14:39:01.545Z,82.62
2018-09-02T14:42:06.420Z,82.29
2018-09-02T14:45:12.277Z,83.15
2018-09-02T14:48:17.450Z,83.79
2018-09-02T14:51:23.939Z,82.23
2018-09-02T14:54:30.828Z,83.98
2018-09-02T14:57:36.756Z,84.77
2018-09-02T15:00:52.759Z,84.92
2018-09-02T15:03:58.956Z,84.96
2018-09-02T15:07:03.821Z,84.09
2018-09-02T15:10:08.394Z,84.32
2018-09-02T15:13:13.344Z,84.59
2018-09-02T15:16:18.157Z,84.66
2018-09-02T15:19:23.570Z,84.58
2018-09-02T15:22:28.941Z,84.64
2018-09-02T15:25:33.736Z,84.40
2018-09-02T15:28:43.863Z,84.48
2018-09-02T15:31:48.783Z,83.99
2018-09-02T15:34:53.464Z,84.81
2018-09-02T15:37:58.250Z,84.82
2018-09-02T15:41:06.256Z,84.44
2018-09-02T15:44:11.557Z,83.88
2018-09-02T15:47:16.048Z,86.53
2018-09-02T15:50:21.290Z,89.25
2018-09-02T15:53:26.129Z,88.45
2018-09-02T15:56:31.655Z,84.68
2018-09-02T15:59:36.444Z,84.39
2018-09-02T16:02:40.983Z,85.92
2018-09-02T16:05:46.121Z,87.11
2018-09-02T16:08:51.153Z,88.08
2018-09-02T16:11:56.032Z,90.10
2018-09-02T16:15:00.797Z,90.90
2018-09-02T16:18:06.015Z,91.94
2018-09-02T16:21:10.507Z,92.84
2018-09-02T16:24:15.216Z,93.13
2018-09-02T16:27:20.082Z,94.76
2018-09-02T16:30:24.997Z,95.76
2018-09-02T16:33:29.854Z,97.12
2018-09-02T16:36:35.023Z,97.22
2018-09-02T16:39:39.910Z,96.35
2018-09-02T16:42:44.458Z,96.90
2018-09-02T16:45:49.231Z,98.55
2018-09-02T16:48:54.399Z,98.98
2018-09-02T16:51:59.926Z,98.67
2018-09-02T16:55:04.718Z,99.30
2018-09-02T16:58:09.502Z,99.71
2018-09-02T17:01:15.094Z,99.93
2018-09-02T17:04:20.986Z,100.00
2018-09-02T17:07:26.737Z,100.00
2018-09-02T17:10:31.242Z,99.05
2018-09-02T17:13:36.191Z,98.47
2018-09-02T17:16:40.669Z,99.54
2018-09-02T17:19:48.239Z,100.00
2018-09-02T17:22:55.896Z,100.00
2018-09-02T17:26:01.230Z,97.25
2018-09-02T17:29:05.948Z,97.44
2018-09-02T17:32:13.041Z,98.49
2018-09-02T17:35:17.955Z,98.20
2018-09-02T17:38:22.690Z,98.16
2018-09-02T17:41:28.341Z,98.60
2018-09-02T17:44:34.158Z,99.67
2018-09-02T17:47:39.045Z,100.00
2018-09-02T17:50:43.963Z,100.00
2018-09-02T17:53:48.888Z,100.00
2018-09-02T17:56:53.539Z,100.00
2018-09-02T17:59:58.304Z,100.00
2018-09-02T18:03:02.911Z,100.00
2018-09-02T18:06:08.797Z,100.00
2018-09-02T18:09:13.240Z,100.00
2018-09-02T18:12:17.977Z,100.00
2018-09-02T18:15:23.652Z,100.00
2018-09-02T18:18:28.181Z,100.00
2018-09-02T18:21:32.793Z,100.00
2018-09-02T18:24:37.374Z,100.00
2018-09-02T18:27:44.638Z,100.00
2018-09-02T18:30:49.150Z,100.00
2018-09-02T18:33:53.623Z,100.00
2018-09-02T18:36:58.310Z,100.00
2018-09-02T18:40:02.847Z,100.00
2018-09-02T18:43:07.744Z,100.00
2018-09-02T18:46:13.154Z,100.00
2018-09-02T18:49:17.684Z,100.00
2018-09-02T18:52:22.101Z,100.00
2018-09-02T18:55:27.088Z,100.00
2018-09-02T18:58:33.187Z,100.00
2018-09-02T19:01:38.127Z,100.00
2018-09-02T19:04:42.916Z,100.00
2018-09-02T19:07:47.669Z,100.00
2018-09-02T19:10:52.626Z,100.00
2018-09-02T19:13:57.164Z,100.00
2018-09-02T19:17:02.150Z,100.00
2018-09-02T19:20:07.691Z,100.00
2018-09-02T19:23:12.625Z,100.00
2018-09-02T19:26:18.173Z,100.00
2018-09-02T19:29:23.093Z,100.00
2018-09-02T19:32:27.943Z,100.00
2018-09-02T19:35:33.409Z,100.00
2018-09-02T19:38:38.261Z,100.00
2018-09-02T19:41:43.070Z,100.00
2018-09-02T19:44:47.792Z,100.00
2018-09-02T19:47:52.827Z,100.00
2018-09-02T19:50:58.298Z,100.00
2018-09-02T19:54:03.238Z,100.00
2018-09-02T19:57:08.131Z,100.00
2018-09-02T20:00:13.889Z,100.00
2018-09-02T20:03:18.646Z,100.00
2018-09-02T20:06:24.411Z,100.00
2018-09-02T20:09:29.456Z,100.00
2018-09-02T20:12:34.495Z,100.00
2018-09-02T20:15:39.140Z,100.00
2018-09-02T20:18:43.897Z,100.00
2018-09-02T20:21:48.343Z,100.00
2018-09-02T20:24:52.933Z,100.00
2018-09-02T20:27:58.013Z,100.00
2018-09-02T20:31:02.612Z,100.00
2018-09-02T20:34:06.986Z,100.00
2018-09-02T20:37:11.765Z,100.00
2018-09-02T20:40:16.397Z,100.00
2018-09-02T20:43:21.288Z,100.00
2018-09-02T20:46:26.252Z,100.00
2018-09-02T20:49:31.286Z,100.00
2018-09-02T20:52:35.890Z,100.00
2018-09-02T20:55:40.555Z,100.00
2018-09-02T20:58:45.238Z,100.00
2018-09-02T21:01:50.667Z,100.00
2018-09-02T21:04:56.320Z,100.00
2018-09-02T21:08:00.679Z,100.00
2018-09-02T21:11:05.197Z,100.00
2018-09-02T21:14:09.814Z,100.00
2018-09-02T21:17:14.327Z,100.00
2018-09-02T21:20:19.224Z,100.00
2018-09-02T21:23:23.946Z,100.00
2018-09-02T21:26:28.455Z,100.00
2018-09-02T21:29:32.921Z,100.00
2018-09-02T21:32:37.333Z,100.00
2018-09-02T21:35:41.829Z,100.00
2018-09-02T21:38:46.657Z,100.00
2018-09-02T21:41:51.234Z,100.00
2018-09-02T21:44:55.859Z,100.00
2018-09-02T21:48:00.397Z,100.00
2018-09-02T21:51:04.812Z,100.00
2018-09-02T21:54:09.499Z,100.00
2018-09-02T21:57:14.146Z,100.00
2018-09-02T22:00:18.928Z,100.00
2018-09-02T22:03:23.473Z,100.00
2018-09-02T22:06:27.965Z,100.00
2018-09-02T22:09:47.188Z,100.00
2018-09-02T22:12:51.594Z,100.00
2018-09-02T22:15:56.430Z,100.00
2018-09-02T22:19:00.901Z,100.00
2018-09-02T22:22:05.597Z,100.00
2018-09-02T22:25:10.404Z,100.00
2018-09-02T22:28:14.766Z,100.00
2018-09-02T22:31:19.261Z,100.00
2018-09-02T22:34:23.873Z,100.00
2018-09-02T22:37:28.937Z,100.00
2018-09-02T22:40:33.284Z,100.00
2018-09-02T22:43:37.862Z,100.00
2018-09-02T22:46:42.324Z,100.00
2018-09-02T22:49:47.832Z,100.00
2018-09-02T22:52:52.607Z,100.00
2018-09-02T22:55:58.358Z,100.00
2018-09-02T22:59:02.707Z,100.00
2018-09-02T23:02:07.053Z,100.00
2018-09-02T23:05:11.477Z,100.00
2018-09-02T23:08:15.869Z,100.00
2018-09-02T23:11:20.491Z,100.00
2018-09-02T23:14:24.848Z,100.00
2018-09-02T23:17:30.210Z,100.00
2018-09-02T23:20:34.741Z,100.00
2018-09-02T23:23:39.234Z,100.00
2018-09-02T23:26:43.901Z,100.00
2018-09-02T23:29:48.293Z,100.00
2018-09-02T23:32:52.780Z,100.00
2018-09-02T23:35:57.127Z,100.00
2018-09-02T23:39:01.539Z,100.00
2018-09-02T23:42:06.165Z,100.00
2018-09-02T23:45:10.496Z,100.00
2018-09-02T23:48:15.128Z,100.00
2018-09-02T23:51:20.960Z,100.00
2018-09-02T23:54:25.407Z,100.00
2018-09-02T23:57:29.747Z,100.00
